Time;durP1;ratioP1;P1;durP2;ratioP2;P2;SDS_P1;SDS_P2;PMS_P1;PMS_P2;Temp;Humidity;BMP_temperature;BMP_pressure;BME280_temperature;BME280_humidity;BME280_pressure;Samples;Min_cycle;Max_cycle;Signal;HPM_P1;HPM_P2
2022/02/07 00:02:07;;;;;;;19.40;13.15;;;;;;;;;;5013467;28;20025;-47
2022/02/07 00:04:36;;;;;;;23.15;14.50;;;;;;;;;;5015205;28;20017;-46
2022/02/07 00:07:02;;;;;;;15.18;13.73;;;;;;;;;;5015459;28;20482;-47
2022/02/07 00:09:29;;;;;;;13.48;10.60;;;;;;;;;;5018694;28;20037;-48
2022/02/07 00:11:54;;;;;;;11.50;10.27;;;;;;;;;;5017133;28;20026;-44
2022/02/07 00:14:20;;;;;;;14.25;10.27;;;;;;;;;;5017148;28;20018;-50
2022/02/07 00:16:45;;;;;;;12.20;9.15;;;;;;;;;;5016334;28;20040;-48
2022/02/07 00:19:16;;;;;;;13.35;8.27;;;;;;;;;;5017478;28;20022;-47
2022/02/07 00:21:42;;;;;;;14.20;6.65;;;;;;;;;;5017853;28;20109;-43
2022/02/07 00:24:07;;;;;;;8.52;6.35;;;;;;;;;;5017162;28;20108;-49
2022/02/07 00:26:32;;;;;;;18.50;6.55;;;;;;;;;;5016623;28;20018;-44
2022/02/07 00:28:58;;;;;;;21.20;6.97;;;;;;;;;;5013647;28;20018;-44
2022/02/07 00:31:23;;;;;;;11.77;7.28;;;;;;;;;;5015637;28;20084;-48
2022/02/07 00:33:48;;;;;;;8.10;6.68;;;;;;;;;;5014911;28;20105;-45
2022/02/07 00:36:17;;;;;;;10.98;7.57;;;;;;;;;;5016716;28;20558;-48
2022/02/07 00:38:45;;;;;;;12.23;7.47;;;;;;;;;;5015120;28;20030;-47
2022/02/07 00:41:23;;;;;;;10.80;7.53;;;;;;;;;;5016482;28;20029;-44
2022/02/07 00:43:54;;;;;;;7.70;6.85;;;;;;;;;;5014027;28;20026;-45
2022/02/07 00:46:31;;;;;;;12.32;6.80;;;;;;;;;;5019986;28;20091;-48
2022/02/07 00:48:56;;;;;;;8.80;6.88;;;;;;;;;;5014095;28;20051;-42
2022/02/07 00:51:24;;;;;;;11.90;7.25;;;;;;;;;;5018029;28;20026;-46
2022/02/07 00:53:49;;;;;;;7.63;6.00;;;;;;;;;;5016643;28;20010;-46
2022/02/07 00:56:14;;;;;;;13.65;9.38;;;;;;;;;;5016888;28;20025;-44
2022/02/07 00:58:40;;;;;;;8.95;7.25;;;;;;;;;;5016959;28;20034;-50
2022/02/07 01:01:05;;;;;;;12.32;6.93;;;;;;;;;;5015397;28;20061;-45
2022/02/07 01:03:30;;;;;;;6.25;5.65;;;;;;;;;;5014926;28;20105;-45
2022/02/07 01:05:56;;;;;;;8.73;4.80;;;;;;;;;;5015107;28;20028;-48
2022/02/07 01:08:29;;;;;;;7.80;4.95;;;;;;;;;;5015183;28;20564;-46
2022/02/07 01:11:08;;;;;;;9.38;4.90;;;;;;;;;;5018733;28;20029;-45
2022/02/07 01:22:19;;;;;;;5.50;4.85;;;;;;;;;;5011634;28;20760;-45
2022/02/07 01:54:32;;;;;;;10.18;6.50;;;;;;;;;;5014594;28;20116;-49
2022/02/07 01:56:57;;;;;;;15.88;6.95;;;;;;;;;;5016041;28;20064;-45
2022/02/07 01:59:23;;;;;;;7.93;4.63;;;;;;;;;;5014375;28;20021;-45
2022/02/07 02:01:48;;;;;;;4.90;4.38;;;;;;;;;;5015074;28;20068;-44
2022/02/07 02:04:13;;;;;;;6.43;4.53;;;;;;;;;;5014524;28;20037;-44
2022/02/07 02:06:39;;;;;;;6.13;4.03;;;;;;;;;;5017031;28;20371;-43
2022/02/07 02:09:05;;;;;;;11.73;4.72;;;;;;;;;;5015910;28;20024;-47
2022/02/07 02:11:33;;;;;;;6.53;4.63;;;;;;;;;;5018160;28;20390;-50
2022/02/07 02:33:48;;;;;;;6.45;4.82;;;;;;;;;;5029598;28;20105;-46
2022/02/07 02:46:34;;;;;;;9.45;4.13;;;;;;;;;;5020692;28;20037;-48
2022/02/07 02:49:02;;;;;;;7.75;4.63;;;;;;;;;;5015416;28;20045;-44
2022/02/07 02:51:27;;;;;;;14.68;4.97;;;;;;;;;;5017099;28;20021;-44
2022/02/07 02:53:52;;;;;;;7.07;3.67;;;;;;;;;;5017246;28;20021;-47
2022/02/07 02:56:18;;;;;;;7.68;3.63;;;;;;;;;;5019681;28;20049;-46
2022/02/07 02:58:43;;;;;;;6.72;4.57;;;;;;;;;;5017848;28;20454;-51
2022/02/07 03:01:08;;;;;;;9.25;4.50;;;;;;;;;;5018687;28;20717;-48
2022/02/07 03:03:34;;;;;;;12.25;4.03;;;;;;;;;;5018795;28;20658;-49
2022/02/07 03:05:59;;;;;;;13.07;5.20;;;;;;;;;;5019129;28;20096;-47
2022/02/07 03:08:25;;;;;;;6.57;5.30;;;;;;;;;;5017740;28;20129;-47
2022/02/07 03:13:31;;;;;;;12.77;4.32;;;;;;;;;;5019012;28;20429;-45
2022/02/07 03:18:41;;;;;;;14.88;5.43;;;;;;;;;;5021591;28;20040;-47
2022/02/07 03:21:07;;;;;;;11.20;8.18;;;;;;;;;;5018423;28;20471;-45
2022/02/07 03:23:32;;;;;;;13.65;8.35;;;;;;;;;;5015757;28;20101;-44
2022/02/07 03:25:58;;;;;;;11.18;6.43;;;;;;;;;;5018104;28;20104;-47
2022/02/07 03:28:25;;;;;;;12.35;6.57;;;;;;;;;;5016236;28;20498;-47
2022/02/07 03:30:50;;;;;;;9.30;6.13;;;;;;;;;;5016031;28;20021;-47
2022/02/07 03:33:16;;;;;;;12.73;8.05;;;;;;;;;;5016672;28;20025;-47
2022/02/07 03:35:41;;;;;;;10.95;8.25;;;;;;;;;;5017949;28;20018;-44
2022/02/07 03:38:07;;;;;;;13.68;11.82;;;;;;;;;;5018394;28;20105;-48
2022/02/07 03:40:32;;;;;;;13.48;9.32;;;;;;;;;;5018492;28;20083;-45
2022/02/07 03:42:58;;;;;;;12.18;7.30;;;;;;;;;;5018553;28;20484;-50
2022/02/07 03:45:23;;;;;;;12.43;8.07;;;;;;;;;;5016323;28;20658;-46
2022/02/07 03:47:49;;;;;;;11.07;7.50;;;;;;;;;;5017412;28;20045;-45
2022/02/07 03:50:14;;;;;;;11.35;6.90;;;;;;;;;;5014209;28;20030;-44
2022/02/07 03:52:40;;;;;;;7.57;5.40;;;;;;;;;;5017365;28;20686;-44
2022/02/07 03:55:06;;;;;;;8.65;5.82;;;;;;;;;;5014404;28;20052;-43
2022/02/07 03:57:31;;;;;;;10.70;7.18;;;;;;;;;;5018065;28;20064;-44
2022/02/07 03:59:56;;;;;;;12.60;7.55;;;;;;;;;;5015323;28;20018;-44
2022/02/07 04:02:22;;;;;;;10.93;7.28;;;;;;;;;;5014638;28;20466;-45
2022/02/07 04:04:54;;;;;;;15.85;6.72;;;;;;;;;;5012546;28;20026;-47
2022/02/07 04:07:20;;;;;;;16.35;6.70;;;;;;;;;;5018430;28;20033;-44
2022/02/07 04:09:50;;;;;;;7.05;4.72;;;;;;;;;;5014065;28;20037;-47
2022/02/07 04:12:20;;;;;;;7.18;4.60;;;;;;;;;;5020127;28;20100;-46
2022/02/07 04:14:45;;;;;;;9.73;4.30;;;;;;;;;;5013934;28;20041;-47
2022/02/07 04:17:16;;;;;;;7.40;3.60;;;;;;;;;;5016378;28;20033;-48
2022/02/07 04:19:41;;;;;;;4.88;3.67;;;;;;;;;;5016733;28;20072;-46
2022/02/07 04:22:08;;;;;;;5.60;3.17;;;;;;;;;;5019343;28;20554;-45
2022/02/07 04:24:34;;;;;;;4.10;3.08;;;;;;;;;;5017060;28;20077;-44
2022/02/07 04:27:00;;;;;;;6.40;3.83;;;;;;;;;;5019491;28;20328;-45
2022/02/07 04:29:25;;;;;;;5.82;4.22;;;;;;;;;;5017417;28;20486;-44
2022/02/07 04:31:50;;;;;;;11.82;4.90;;;;;;;;;;5017394;28;20021;-46
2022/02/07 04:34:16;;;;;;;5.03;4.18;;;;;;;;;;5013922;28;20025;-48
2022/02/07 04:36:43;;;;;;;9.52;5.40;;;;;;;;;;5015876;28;20630;-48
2022/02/07 04:39:08;;;;;;;5.45;4.13;;;;;;;;;;5015450;28;20040;-47
2022/02/07 04:41:34;;;;;;;6.75;4.05;;;;;;;;;;5013833;28;20474;-46
2022/02/07 04:44:04;;;;;;;6.70;4.63;;;;;;;;;;5014261;28;20021;-50
2022/02/07 04:59:40;;;;;;;6.30;4.53;;;;;;;;;;5017536;28;20045;-49
2022/02/07 05:02:24;;;;;;;5.97;4.32;;;;;;;;;;5013999;28;20038;-45
2022/02/07 05:13:44;;;;;;;8.70;7.90;;;;;;;;;;5013766;28;20029;-46
2022/02/07 05:16:01;;;;;;;7.93;6.75;;;;;;;;;;5014149;28;20028;-46
2022/02/07 05:18:28;;;;;;;13.90;8.23;;;;;;;;;;5014022;28;20026;-48
2022/02/07 05:20:53;;;;;;;9.43;4.43;;;;;;;;;;5014032;28;20102;-47
2022/02/07 05:23:19;;;;;;;7.50;4.47;;;;;;;;;;5016175;28;20459;-47
2022/02/07 05:25:44;;;;;;;10.25;5.78;;;;;;;;;;5017692;28;20545;-46
2022/02/07 05:28:09;;;;;;;5.03;3.90;;;;;;;;;;5014426;28;20032;-48
2022/02/07 05:30:34;;;;;;;9.75;3.25;;;;;;;;;;5016546;28;20025;-46
2022/02/07 05:33:00;;;;;;;8.77;4.13;;;;;;;;;;5013472;28;20394;-47
2022/02/07 05:35:25;;;;;;;12.52;4.75;;;;;;;;;;5016223;28;20017;-44
2022/02/07 05:37:50;;;;;;;8.20;5.22;;;;;;;;;;5013085;28;20009;-44
2022/02/07 05:40:28;;;;;;;19.58;5.93;;;;;;;;;;5013872;28;20021;-49
2022/02/07 05:42:53;;;;;;;9.50;7.80;;;;;;;;;;5015025;28;20481;-43
2022/02/07 05:45:18;;;;;;;8.65;5.45;;;;;;;;;;5015740;28;20482;-46
2022/02/07 05:47:44;;;;;;;12.45;7.80;;;;;;;;;;5014479;28;20137;-47
2022/02/07 05:50:09;;;;;;;9.15;4.63;;;;;;;;;;5015290;28;20025;-45
2022/02/07 05:52:34;;;;;;;5.88;5.05;;;;;;;;;;5015425;28;20598;-46
2022/02/07 05:55:00;;;;;;;16.83;7.15;;;;;;;;;;5015485;28;20033;-44
2022/02/07 05:57:25;;;;;;;8.70;5.20;;;;;;;;;;5016098;28;20090;-49
2022/02/07 05:59:51;;;;;;;11.73;10.57;;;;;;;;;;5012949;28;20523;-48
2022/02/07 06:02:16;;;;;;;7.40;5.53;;;;;;;;;;5015556;28;20014;-47
2022/02/07 06:04:41;;;;;;;10.55;5.88;;;;;;;;;;5017333;28;20017;-48
2022/02/07 06:07:06;;;;;;;8.48;6.28;;;;;;;;;;5013847;28;20018;-46
2022/02/07 06:09:32;;;;;;;14.43;5.07;;;;;;;;;;5015005;28;20098;-45
2022/02/07 06:11:57;;;;;;;5.82;2.08;;;;;;;;;;5015319;28;20458;-46
2022/02/07 06:14:22;;;;;;;9.73;3.88;;;;;;;;;;5016813;28;20079;-45
2022/02/07 06:16:48;;;;;;;7.72;3.67;;;;;;;;;;5012848;28;20026;-46
2022/02/07 06:19:13;;;;;;;4.28;3.05;;;;;;;;;;5014897;28;20022;-48
2022/02/07 06:21:39;;;;;;;5.95;4.25;;;;;;;;;;5015482;28;20058;-47
2022/02/07 06:24:04;;;;;;;10.45;7.75;;;;;;;;;;5013258;28;20497;-47
2022/02/07 06:26:30;;;;;;;21.33;15.57;;;;;;;;;;5016908;28;20025;-46
2022/02/07 06:28:56;;;;;;;23.48;16.48;;;;;;;;;;5013265;28;20147;-48
2022/02/07 06:31:21;;;;;;;16.13;10.02;;;;;;;;;;5013632;28;20033;-47
2022/02/07 06:33:47;;;;;;;14.68;7.03;;;;;;;;;;5013276;28;20022;-47
2022/02/07 06:36:12;;;;;;;8.63;7.03;;;;;;;;;;5012195;28;20445;-44
2022/02/07 06:38:37;;;;;;;9.95;8.55;;;;;;;;;;5014473;28;20032;-48
2022/02/07 06:41:02;;;;;;;15.68;11.45;;;;;;;;;;5015987;28;20018;-45
2022/02/07 06:43:28;;;;;;;11.25;9.23;;;;;;;;;;5013625;28;20052;-43
2022/02/07 06:45:53;;;;;;;11.70;8.52;;;;;;;;;;5013055;28;20030;-46
2022/02/07 06:48:18;;;;;;;20.02;9.82;;;;;;;;;;5012834;28;20240;-46
2022/02/07 06:50:44;;;;;;;10.95;7.85;;;;;;;;;;5014371;28;20080;-47
2022/02/07 06:53:09;;;;;;;8.77;6.13;;;;;;;;;;5017005;28;20340;-45
2022/02/07 06:55:34;;;;;;;14.18;10.32;;;;;;;;;;5017479;28;20053;-45
2022/02/07 06:58:00;;;;;;;14.32;10.70;;;;;;;;;;5019167;28;20459;-46
2022/02/07 07:00:25;;;;;;;22.92;14.63;;;;;;;;;;5018848;28;20018;-50
2022/02/07 07:02:51;;;;;;;25.33;18.67;;;;;;;;;;5018416;28;20080;-47
2022/02/07 07:05:21;;;;;;;15.73;13.40;;;;;;;;;;5018429;28;20025;-47
2022/02/07 07:07:47;;;;;;;13.93;10.95;;;;;;;;;;5015494;28;20556;-46
2022/02/07 07:10:12;;;;;;;13.00;11.00;;;;;;;;;;5016252;28;20053;-46
2022/02/07 07:12:38;;;;;;;13.00;10.40;;;;;;;;;;5016081;28;20017;-45
2022/02/07 07:15:14;;;;;;;14.80;12.90;;;;;;;;;;5016501;28;20025;-47
2022/02/07 07:17:39;;;;;;;21.10;11.63;;;;;;;;;;5015614;28;20029;-49
2022/02/07 07:20:05;;;;;;;14.05;11.55;;;;;;;;;;5015048;28;20458;-41
2022/02/07 07:22:31;;;;;;;11.23;9.32;;;;;;;;;;5015957;28;20010;-41
2022/02/07 07:24:57;;;;;;;12.13;9.73;;;;;;;;;;5018534;28;20102;-43
2022/02/07 07:27:26;;;;;;;14.98;9.57;;;;;;;;;;5019971;28;20121;-43
2022/02/07 07:29:51;;;;;;;13.27;8.35;;;;;;;;;;5018926;28;20053;-40
2022/02/07 07:32:22;;;;;;;12.73;8.82;;;;;;;;;;5014565;28;20056;-45
2022/02/07 07:34:47;;;;;;;9.35;8.32;;;;;;;;;;5015215;28;20044;-41
2022/02/07 07:37:12;;;;;;;14.13;10.90;;;;;;;;;;5018284;28;20034;-41
2022/02/07 07:39:38;;;;;;;22.30;12.73;;;;;;;;;;5016058;28;20025;-44
2022/02/07 07:42:03;;;;;;;40.35;14.30;;;;;;;;;;5015542;28;20541;-39
2022/02/07 07:44:33;;;;;;;26.38;11.57;;;;;;;;;;5016377;28;20029;-42
2022/02/07 07:47:06;;;;;;;19.48;13.55;;;;;;;;;;5015324;28;20018;-41
2022/02/07 07:49:43;;;;;;;24.33;13.70;;;;;;;;;;5014450;28;20042;-42
2022/02/07 07:52:13;;;;;;;15.63;12.45;;;;;;;;;;5016943;28;20021;-44
2022/02/07 08:02:44;;;;;;;40.60;22.55;;;;;;;;;;5016224;28;20068;-41
2022/02/07 08:05:20;;;;;;;80.15;39.70;;;;;;;;;;5018568;28;20101;-43
2022/02/07 08:07:51;;;;;;;107.60;49.00;;;;;;;;;;5014986;28;20022;-43
2022/02/07 08:12:46;;;;;;;60.03;25.30;;;;;;;;;;5018054;28;20034;-39
2022/02/07 08:15:14;;;;;;;26.23;17.02;;;;;;;;;;5014178;28;20056;-42
2022/02/07 08:17:40;;;;;;;57.35;27.13;;;;;;;;;;5015809;28;20038;-40
2022/02/07 08:20:05;;;;;;;43.65;23.40;;;;;;;;;;5016351;28;20069;-39
2022/02/07 08:22:31;;;;;;;29.98;21.08;;;;;;;;;;5017094;28;20505;-41
2022/02/07 08:24:56;;;;;;;32.63;21.50;;;;;;;;;;5017787;28;20501;-38
2022/02/07 08:27:23;;;;;;;20.67;14.38;;;;;;;;;;5017081;28;20034;-39
2022/02/07 08:29:48;;;;;;;26.90;15.98;;;;;;;;;;5014896;28;20379;-38
2022/02/07 08:32:14;;;;;;;24.10;16.63;;;;;;;;;;5014365;28;20128;-40
2022/02/07 08:34:39;;;;;;;45.70;26.73;;;;;;;;;;5018197;28;20025;-38
2022/02/07 08:37:04;;;;;;;54.42;30.20;;;;;;;;;;5014663;28;20477;-39
2022/02/07 08:39:30;;;;;;;37.05;31.02;;;;;;;;;;5018464;28;20025;-39
2022/02/07 08:41:55;;;;;;;47.40;30.13;;;;;;;;;;5014302;28;20021;-38
2022/02/07 08:44:20;;;;;;;43.95;30.83;;;;;;;;;;5016386;28;20434;-38
2022/02/07 08:46:46;;;;;;;48.53;25.55;;;;;;;;;;5016902;28;20026;-39
2022/02/07 08:49:11;;;;;;;35.00;22.17;;;;;;;;;;5015834;28;20559;-38
2022/02/07 08:51:36;;;;;;;51.83;29.92;;;;;;;;;;5016879;28;20029;-38
2022/02/07 08:54:05;;;;;;;60.15;32.90;;;;;;;;;;5016507;28;20475;-38
2022/02/07 08:56:41;;;;;;;47.63;31.95;;;;;;;;;;5016735;28;20085;-37
2022/02/07 08:59:06;;;;;;;49.53;30.70;;;;;;;;;;5016375;28;20121;-37
2022/02/07 09:01:44;;;;;;;56.90;33.63;;;;;;;;;;5014990;28;20014;-37
2022/02/07 09:06:42;;;;;;;37.03;28.65;;;;;;;;;;5014542;28;20100;-40
2022/02/07 09:09:18;;;;;;;32.88;26.13;;;;;;;;;;5008549;28;20026;-39
2022/02/07 09:11:43;;;;;;;34.03;27.48;;;;;;;;;;5010836;28;20033;-38
2022/02/07 09:14:11;;;;;;;31.00;27.65;;;;;;;;;;5013306;28;20072;-38
2022/02/07 09:16:38;;;;;;;31.77;22.63;;;;;;;;;;5011517;28;20026;-43
2022/02/07 09:19:04;;;;;;;52.63;35.85;;;;;;;;;;5013663;28;20033;-38
2022/02/07 09:21:29;;;;;;;45.17;31.45;;;;;;;;;;5015322;28;20107;-42
2022/02/07 09:23:55;;;;;;;19.45;17.38;;;;;;;;;;5014875;28;20495;-38
2022/02/07 09:26:21;;;;;;;20.67;17.15;;;;;;;;;;5015407;28;20091;-41
2022/02/07 09:28:46;;;;;;;46.70;41.75;;;;;;;;;;5013971;28;20422;-40
2022/02/07 09:31:12;;;;;;;54.58;48.90;;;;;;;;;;5012150;28;20157;-41
2022/02/07 09:33:38;;;;;;;51.95;46.40;;;;;;;;;;5013412;28;20037;-44
2022/02/07 09:36:04;;;;;;;37.17;33.28;;;;;;;;;;5012581;28;20033;-39
2022/02/07 09:38:30;;;;;;;49.17;30.88;;;;;;;;;;5013430;28;20099;-39
2022/02/07 09:40:57;;;;;;;29.65;26.50;;;;;;;;;;5012263;28;20032;-42
2022/02/07 09:43:30;;;;;;;39.80;34.63;;;;;;;;;;5013668;28;20021;-43
2022/02/07 09:46:05;;;;;;;79.63;59.22;;;;;;;;;;5011919;28;20021;-38
2022/02/07 09:48:31;;;;;;;52.13;45.38;;;;;;;;;;5012004;28;20083;-40
2022/02/07 09:50:57;;;;;;;49.75;37.47;;;;;;;;;;5010063;28;20330;-38
2022/02/07 09:53:25;;;;;;;39.90;34.83;;;;;;;;;;5010968;28;20506;-38
2022/02/07 09:55:51;;;;;;;43.42;35.03;;;;;;;;;;5011073;28;20026;-39
2022/02/07 09:58:16;;;;;;;56.33;43.53;;;;;;;;;;5011150;28;20191;-44
2022/02/07 10:00:41;;;;;;;35.40;31.25;;;;;;;;;;5010914;28;20120;-39
2022/02/07 10:03:16;;;;;;;13.32;7.88;;;;;;;;;;5011415;28;20029;-44
2022/02/07 10:05:54;;;;;;;7.80;6.03;;;;;;;;;;5013965;28;20036;-40
2022/02/07 10:19:03;;;;;;;5.65;3.78;;;;;;;;;;5010662;28;20033;-40
2022/02/07 10:40:42;;;;;;;17.00;5.63;;;;;;;;;;5016836;28;20018;-42
2022/02/07 10:45:56;;;;;;;14.82;5.15;;;;;;;;;;5012578;28;20159;-43
2022/02/07 10:48:27;;;;;;;18.02;7.97;;;;;;;;;;5014002;28;20065;-39
2022/02/07 10:50:53;;;;;;;;;;;;;;;;;;5014332;28;20033;-42
2022/02/07 10:53:22;;;;;;;8.20;4.53;;;;;;;;;;5014675;28;19950;-40
2022/02/07 10:55:47;;;;;;;19.92;4.63;;;;;;;;;;5015033;28;20038;-40
2022/02/07 10:58:12;;;;;;;7.45;3.97;;;;;;;;;;5015834;28;20033;-40
2022/02/07 11:00:42;;;;;;;8.35;4.32;;;;;;;;;;5015985;28;20057;-40
2022/02/07 11:03:16;;;;;;;4.25;3.22;;;;;;;;;;5016362;28;20025;-42
2022/02/07 11:05:48;;;;;;;5.57;4.35;;;;;;;;;;5014531;28;20018;-42
2022/02/07 11:11:06;;;;;;;9.10;5.78;;;;;;;;;;5018957;28;20031;-42
2022/02/07 11:19:20;;;;;;;12.70;7.35;;;;;;;;;;5014035;28;20063;-42
2022/02/07 11:22:10;;;;;;;6.53;5.78;;;;;;;;;;5016436;28;20033;-42
2022/02/07 11:27:28;;;;;;;7.28;5.82;;;;;;;;;;5019506;28;20029;-41
2022/02/07 11:29:54;;;;;;;7.95;3.90;;;;;;;;;;5012331;28;20025;-41
2022/02/07 11:32:54;;;;;;;3.83;2.90;;;;;;;;;;5013505;28;20026;-41
2022/02/07 11:35:24;;;;;;;5.28;2.20;;;;;;;;;;5026672;28;20034;-43
2022/02/07 11:38:10;;;;;;;5.50;3.20;;;;;;;;;;5012194;28;20021;-42
2022/02/07 11:40:43;;;;;;;5.72;2.20;;;;;;;;;;5016884;28;20520;-41
2022/02/07 11:43:17;;;;;;;5.05;3.47;;;;;;;;;;5015633;28;20452;-43
2022/02/07 11:45:52;;;;;;;4.72;3.25;;;;;;;;;;5016293;28;20044;-40
2022/02/07 11:48:19;;;;;;;4.07;2.80;;;;;;;;;;5014305;28;20049;-40
2022/02/07 11:50:45;;;;;;;7.88;3.88;;;;;;;;;;5015446;28;20025;-43
2022/02/07 11:53:11;;;;;;;3.65;2.90;;;;;;;;;;5017224;28;20471;-42
2022/02/07 11:55:46;;;;;;;10.40;6.40;;;;;;;;;;5012769;28;20053;-41
2022/02/07 11:58:20;;;;;;;4.72;3.35;;;;;;;;;;5016504;28;20490;-40
2022/02/07 12:00:48;;;;;;;12.05;4.05;;;;;;;;;;5013712;28;20064;-42
2022/02/07 12:03:15;;;;;;;5.43;3.50;;;;;;;;;;5013561;28;20040;-40
2022/02/07 12:05:42;;;;;;;9.13;3.60;;;;;;;;;;5015996;28;20022;-41
2022/02/07 12:08:13;;;;;;;4.57;2.92;;;;;;;;;;5015743;28;20038;-41
2022/02/07 12:10:46;;;;;;;4.30;2.70;;;;;;;;;;5017544;28;20033;-44
2022/02/07 12:13:39;;;;;;;4.20;2.45;;;;;;;;;;5015792;28;20026;-43
2022/02/07 12:16:20;;;;;;;3.25;2.10;;;;;;;;;;5017413;28;20517;-43
2022/02/07 12:18:46;;;;;;;6.03;1.53;;;;;;;;;;5019018;28;20375;-45
2022/02/07 12:21:13;;;;;;;3.13;2.05;;;;;;;;;;5016299;28;20030;-44
2022/02/07 12:23:39;;;;;;;4.03;2.00;;;;;;;;;;5017200;28;20105;-42
2022/02/07 12:26:11;;;;;;;2.90;2.60;;;;;;;;;;5014646;28;20140;-47
2022/02/07 12:33:30;;;;;;;4.50;2.67;;;;;;;;;;5011947;28;20029;-47
2022/02/07 12:35:58;;;;;;;6.20;3.03;;;;;;;;;;5014748;28;20574;-44
2022/02/07 12:38:25;;;;;;;14.15;2.97;;;;;;;;;;5014764;28;20036;-44
2022/02/07 12:40:50;;;;;;;3.50;2.53;;;;;;;;;;5015880;28;20072;-43
2022/02/07 12:43:18;;;;;;;5.65;2.88;;;;;;;;;;5014115;28;20430;-44
2022/02/07 12:45:43;;;;;;;4.78;1.95;;;;;;;;;;5015942;28;20025;-44
2022/02/07 12:48:15;;;;;;;3.63;2.30;;;;;;;;;;5013210;28;20046;-47
2022/02/07 12:50:41;;;;;;;4.45;2.40;;;;;;;;;;5015603;28;20662;-44
2022/02/07 12:53:07;;;;;;;3.50;2.47;;;;;;;;;;5015002;28;20084;-41
2022/02/07 12:55:34;;;;;;;8.40;5.93;;;;;;;;;;5015617;28;20069;-43
2022/02/07 12:57:59;;;;;;;6.05;3.55;;;;;;;;;;5018156;28;20069;-44
2022/02/07 13:00:24;;;;;;;7.82;2.83;;;;;;;;;;5017815;28;20478;-43
2022/02/07 13:02:50;;;;;;;16.92;5.18;;;;;;;;;;5014747;28;20022;-45
2022/02/07 13:05:17;;;;;;;9.98;3.25;;;;;;;;;;5017876;28;20509;-43
2022/02/07 13:07:46;;;;;;;5.22;3.35;;;;;;;;;;5015711;28;20025;-46
2022/02/07 13:10:13;;;;;;;2.95;2.35;;;;;;;;;;5014016;28;20046;-45
2022/02/07 13:15:34;;;;;;;3.58;1.55;;;;;;;;;;5014955;28;20032;-43
2022/02/07 13:18:04;;;;;;;4.07;2.65;;;;;;;;;;5013670;28;20037;-43
2022/02/07 13:20:29;;;;;;;3.55;1.50;;;;;;;;;;5014107;28;20219;-41
2022/02/07 13:23:05;;;;;;;3.90;1.92;;;;;;;;;;5013388;28;20116;-44
2022/02/07 13:25:38;;;;;;;3.83;1.85;;;;;;;;;;5016331;28;20335;-44
2022/02/07 13:28:04;;;;;;;6.18;1.63;;;;;;;;;;5013005;28;20479;-49
2022/02/07 13:30:29;;;;;;;1.67;0.93;;;;;;;;;;5016282;28;20481;-46
2022/02/07 13:32:54;;;;;;;4.05;2.00;;;;;;;;;;5015291;28;20025;-41
2022/02/07 13:35:21;;;;;;;3.55;2.92;;;;;;;;;;5015011;28;20434;-43
2022/02/07 13:37:48;;;;;;;2.78;1.90;;;;;;;;;;5013874;28;20056;-46
2022/02/07 13:40:13;;;;;;;2.88;1.83;;;;;;;;;;5014863;28;20048;-43
2022/02/07 13:42:40;;;;;;;2.92;1.08;;;;;;;;;;5014985;28;20083;-46
2022/02/07 13:45:09;;;;;;;0.98;0.60;;;;;;;;;;5016584;28;20475;-41
2022/02/07 13:47:36;;;;;;;4.05;2.25;;;;;;;;;;5014128;28;20065;-43
2022/02/07 13:50:04;;;;;;;6.93;2.25;;;;;;;;;;5017689;28;20020;-41
2022/02/07 13:52:31;;;;;;;7.65;1.80;;;;;;;;;;5014129;28;20013;-40
2022/02/07 13:55:15;;;;;;;7.28;1.10;;;;;;;;;;5013043;28;20013;-44
2022/02/07 13:57:51;;;;;;;2.58;1.20;;;;;;;;;;5013942;28;20482;-42
2022/02/07 14:00:16;;;;;;;2.33;1.40;;;;;;;;;;5013489;28;20487;-43
2022/02/07 14:02:43;;;;;;;3.08;1.15;;;;;;;;;;5014139;28;20126;-43
2022/02/07 14:05:09;;;;;;;7.15;3.40;;;;;;;;;;5014061;28;20124;-41
2022/02/07 14:07:53;;;;;;;3.42;2.58;;;;;;;;;;5017455;28;20093;-41
2022/02/07 14:10:20;;;;;;;14.52;2.92;;;;;;;;;;5015939;28;20040;-45
2022/02/07 14:12:45;;;;;;;4.05;1.67;;;;;;;;;;5016382;28;20029;-41
2022/02/07 14:15:11;;;;;;;6.82;2.42;;;;;;;;;;5014857;28;20029;-42
2022/02/07 14:17:42;;;;;;;4.32;2.20;;;;;;;;;;5012744;28;20391;-44
2022/02/07 14:20:10;;;;;;;;;;;;;;;;;;5014348;28;20034;-41
2022/02/07 14:22:36;;;;;;;18.92;3.30;;;;;;;;;;5016557;28;19911;-44
2022/02/07 14:25:02;;;;;;;3.03;1.67;;;;;;;;;;5012864;28;20121;-43
2022/02/07 14:27:27;;;;;;;7.60;2.90;;;;;;;;;;5018429;28;20482;-41
2022/02/07 14:29:53;;;;;;;2.00;1.42;;;;;;;;;;5015290;28;20149;-42
2022/02/07 14:32:18;;;;;;;3.78;1.17;;;;;;;;;;5014465;28;20029;-43
2022/02/07 14:34:43;;;;;;;3.88;1.67;;;;;;;;;;5013939;28;20021;-41
2022/02/07 14:37:10;;;;;;;5.13;2.13;;;;;;;;;;5011974;28;20040;-43
2022/02/07 14:39:36;;;;;;;4.95;3.63;;;;;;;;;;5014133;28;20057;-44
2022/02/07 14:42:04;;;;;;;10.93;2.20;;;;;;;;;;5016407;28;20025;-43
2022/02/07 14:44:32;;;;;;;6.32;2.65;;;;;;;;;;5013581;28;20485;-44
2022/02/07 14:47:06;;;;;;;3.65;2.30;;;;;;;;;;5012213;28;20025;-45
2022/02/07 14:49:31;;;;;;;5.30;3.25;;;;;;;;;;5015195;28;20057;-44
2022/02/07 14:51:59;;;;;;;3.05;2.75;;;;;;;;;;5012268;28;20026;-43
2022/02/07 14:54:25;;;;;;;2.10;1.40;;;;;;;;;;5012643;28;20026;-44
2022/02/07 14:56:50;;;;;;;4.82;1.70;;;;;;;;;;5014135;28;20091;-43
2022/02/07 14:59:17;;;;;;;6.18;3.40;;;;;;;;;;5015431;28;20911;-42
2022/02/07 15:01:43;;;;;;;4.88;2.40;;;;;;;;;;5012867;28;20488;-41
2022/02/07 15:04:09;;;;;;;5.82;1.65;;;;;;;;;;5013904;28;20072;-42
2022/02/07 15:06:34;;;;;;;18.00;6.20;;;;;;;;;;5015847;28;20013;-44
2022/02/07 15:08:59;;;;;;;4.93;3.47;;;;;;;;;;5013389;28;20026;-44
2022/02/07 15:11:27;;;;;;;4.03;2.70;;;;;;;;;;5015750;28;20101;-47
2022/02/07 15:13:52;;;;;;;3.00;2.08;;;;;;;;;;5016139;28;20053;-47
2022/02/07 15:16:17;;;;;;;3.55;2.63;;;;;;;;;;5019750;28;20407;-45
2022/02/07 15:18:42;;;;;;;6.90;2.47;;;;;;;;;;5018412;28;20034;-45
2022/02/07 15:21:08;;;;;;;4.35;3.28;;;;;;;;;;5021344;28;20017;-44
2022/02/07 15:23:37;;;;;;;6.95;4.07;;;;;;;;;;5018809;28;20055;-41
2022/02/07 15:26:02;;;;;;;6.80;4.35;;;;;;;;;;5015647;28;20030;-44
2022/02/07 15:28:28;;;;;;;8.43;4.20;;;;;;;;;;5016778;28;20398;-42
2022/02/07 15:30:53;;;;;;;3.15;2.65;;;;;;;;;;5017669;28;20025;-41
2022/02/07 15:33:21;;;;;;;6.78;1.58;;;;;;;;;;5015792;28;20061;-43
2022/02/07 15:35:54;;;;;;;7.95;3.28;;;;;;;;;;5018861;28;20026;-43
2022/02/07 15:38:25;;;;;;;9.18;4.63;;;;;;;;;;5020737;28;20073;-41
2022/02/07 15:40:51;;;;;;;6.50;4.20;;;;;;;;;;5018113;28;20018;-41
2022/02/07 15:43:16;;;;;;;8.10;5.18;;;;;;;;;;5016982;28;20486;-40
2022/02/07 15:45:43;;;;;;;18.40;10.63;;;;;;;;;;5017288;28;20030;-43
2022/02/07 15:48:08;;;;;;;11.85;6.97;;;;;;;;;;5020148;28;20057;-45
2022/02/07 15:50:34;;;;;;;7.10;5.60;;;;;;;;;;5019085;28;20029;-44
2022/02/07 15:53:01;;;;;;;7.45;2.72;;;;;;;;;;5019240;28;20116;-40
2022/02/07 15:55:27;;;;;;;14.15;11.93;;;;;;;;;;5018291;28;20179;-45
2022/02/07 15:57:52;;;;;;;5.82;3.90;;;;;;;;;;5018297;28;20483;-41
2022/02/07 16:00:18;;;;;;;9.98;4.15;;;;;;;;;;5016766;28;20040;-41
2022/02/07 16:02:51;;;;;;;11.13;4.97;;;;;;;;;;5022393;28;20458;-42
2022/02/07 16:05:20;;;;;;;6.82;4.35;;;;;;;;;;5017201;28;20029;-40
2022/02/07 16:07:47;;;;;;;11.65;6.18;;;;;;;;;;5016863;28;20167;-41
2022/02/07 16:10:13;;;;;;;14.52;11.63;;;;;;;;;;5018134;28;20025;-44
2022/02/07 16:12:38;;;;;;;16.23;10.07;;;;;;;;;;5015069;28;20018;-44
2022/02/07 16:15:03;;;;;;;11.90;9.05;;;;;;;;;;5015537;28;20481;-44
2022/02/07 16:17:29;;;;;;;18.83;8.38;;;;;;;;;;5015904;28;20104;-43
2022/02/07 16:19:56;;;;;;;16.67;10.95;;;;;;;;;;5019150;28;20014;-40
2022/02/07 16:22:22;;;;;;;13.82;10.18;;;;;;;;;;5013631;28;20074;-43
2022/02/07 16:24:47;;;;;;;15.20;7.65;;;;;;;;;;5016911;28;20637;-43
2022/02/07 16:27:13;;;;;;;19.85;6.80;;;;;;;;;;5019038;28;20049;-41
2022/02/07 16:29:39;;;;;;;12.48;9.43;;;;;;;;;;5014390;28;20398;-40
2022/02/07 16:32:04;;;;;;;14.80;13.55;;;;;;;;;;5015806;28;20073;-40
2022/02/07 16:34:29;;;;;;;17.75;16.02;;;;;;;;;;5018169;28;20084;-43
2022/02/07 16:36:54;;;;;;;11.48;9.77;;;;;;;;;;5016796;28;20025;-39
2022/02/07 16:39:20;;;;;;;20.02;11.82;;;;;;;;;;5016235;28;20021;-46
2022/02/07 16:41:46;;;;;;;45.20;36.10;;;;;;;;;;5015116;28;20072;-41
2022/02/07 16:44:13;;;;;;;16.35;13.15;;;;;;;;;;5013949;28;20510;-42
2022/02/07 16:46:48;;;;;;;7.35;4.80;;;;;;;;;;5016579;28;20018;-41
2022/02/07 16:49:22;;;;;;;5.60;1.70;;;;;;;;;;5016313;28;20058;-43
2022/02/07 16:51:48;;;;;;;2.47;1.45;;;;;;;;;;5015661;28;20112;-42
2022/02/07 16:54:13;;;;;;;9.82;4.85;;;;;;;;;;5014051;28;20030;-40
2022/02/07 16:56:39;;;;;;;6.78;5.50;;;;;;;;;;5015972;28;20032;-39
2022/02/07 16:59:05;;;;;;;10.50;6.97;;;;;;;;;;5008645;28;20025;-42
2022/02/07 17:01:30;;;;;;;16.50;14.75;;;;;;;;;;5013762;28;20017;-41
2022/02/07 17:03:57;;;;;;;14.25;11.57;;;;;;;;;;5014884;28;20022;-40
2022/02/07 17:06:23;;;;;;;12.68;8.10;;;;;;;;;;5009694;28;20022;-43
2022/02/07 17:08:52;;;;;;;10.80;9.50;;;;;;;;;;5013121;28;20121;-40
2022/02/07 17:11:18;;;;;;;17.63;13.32;;;;;;;;;;5009326;28;20045;-40
2022/02/07 17:13:43;;;;;;;21.85;16.63;;;;;;;;;;5013020;28;20025;-43
2022/02/07 17:16:09;;;;;;;18.55;13.00;;;;;;;;;;5011803;28;20701;-40